Terminal Aerodrome Forecast
Issued by NWS

Home | Current Version | Previous Version | Text Only | Print | Product List | Glossary On
Versions: 1 2 3 4 5 6 7 8 9 10 11 12 13 14 15 16 17
897
FTUS42 KTAE 301720
TAFECP
TAF
KECP 301720Z 3018/0118 15015G25KT P6SM SCT025 BKN035
      TEMPO 3018/3020 BKN025
     FM010000 16011KT P6SM SCT025
     FM010300 16010KT P6SM BKN015
     FM010900 17010KT P6SM VCTS BKN020CB
     FM011600 32012G18KT P6SM VCSH SCT025=

USA.gov is the U.S. government's official web portal to all federal, state and local government web resources and services.